Time;durP1;ratioP1;P1;durP2;ratioP2;P2;SDS_P1;SDS_P2;PMS_P1;PMS_P2;Temp;Humidity;BMP_temperature;BMP_pressure;BME280_temperature;BME280_humidity;BME280_pressure;Samples;Min_cycle;Max_cycle;Signal;HPM_P1;HPM_P2
2022/03/18 00:00:00;;;;;;;12.40;4.53;;;2.90;99.90;;;;;;5032241;28;20052;-70
2022/03/18 00:02:26;;;;;;;10.93;3.55;;;2.90;99.90;;;;;;5030859;28;20049;-70
2022/03/18 00:04:53;;;;;;;9.32;4.07;;;2.90;99.90;;;;;;5038321;28;20059;-69
2022/03/18 00:07:20;;;;;;;9.07;3.65;;;2.80;99.90;;;;;;5034287;28;20048;-69
2022/03/18 00:09:47;;;;;;;11.57;4.35;;;2.80;99.90;;;;;;5049872;28;20055;-69
2022/03/18 00:12:13;;;;;;;7.68;3.75;;;2.80;99.90;;;;;;5041438;28;20046;-69
2022/03/18 00:14:41;;;;;;;6.03;3.67;;;2.80;99.90;;;;;;5032362;28;20042;-70
2022/03/18 00:17:08;;;;;;;6.15;4.35;;;2.80;99.90;;;;;;5030268;28;20041;-69
2022/03/18 00:19:38;;;;;;;11.23;5.00;;;2.70;99.90;;;;;;5032283;28;20045;-69
2022/03/18 00:22:05;;;;;;;11.50;4.47;;;2.80;99.90;;;;;;5032254;28;20052;-69
2022/03/18 00:24:32;;;;;;;12.50;4.13;;;2.80;99.90;;;;;;5029796;28;20573;-69
2022/03/18 00:26:59;;;;;;;8.43;4.03;;;2.80;99.90;;;;;;5030364;28;20144;-69
2022/03/18 00:29:25;;;;;;;13.65;4.72;;;2.70;99.90;;;;;;5030746;28;20052;-69
2022/03/18 00:31:51;;;;;;;12.82;4.55;;;2.80;99.90;;;;;;5031152;28;20041;-69
2022/03/18 00:34:17;;;;;;;11.90;5.20;;;2.70;99.90;;;;;;5031968;28;20055;-69
2022/03/18 00:36:43;;;;;;;15.15;4.93;;;2.70;99.90;;;;;;5030341;28;20135;-70
2022/03/18 00:39:08;;;;;;;15.82;5.55;;;2.70;99.90;;;;;;5030977;28;20401;-69
2022/03/18 00:41:34;;;;;;;11.05;4.95;;;2.70;99.90;;;;;;5031775;28;20045;-70
2022/03/18 00:44:00;;;;;;;14.35;5.60;;;2.70;99.90;;;;;;5030894;28;20085;-70
2022/03/18 00:46:25;;;;;;;10.55;4.95;;;2.70;99.90;;;;;;5030689;28;20381;-69
2022/03/18 00:54:21;;;;;;;9.05;4.53;;;2.60;99.90;;;;;;5030291;28;20061;-69
2022/03/18 00:56:47;;;;;;;10.30;5.50;;;2.60;99.90;;;;;;5029926;28;20048;-69
2022/03/18 00:59:13;;;;;;;11.27;5.28;;;2.60;99.90;;;;;;5029776;28;20434;-69
2022/03/18 01:01:39;;;;;;;17.17;6.22;;;2.60;99.90;;;;;;5030123;28;20532;-70
2022/03/18 01:04:04;;;;;;;10.30;4.70;;;2.60;99.90;;;;;;5030165;28;20049;-69
2022/03/18 01:06:35;;;;;;;14.60;5.97;;;2.60;99.90;;;;;;5029519;28;20041;-69
2022/03/18 01:09:02;;;;;;;10.40;5.00;;;2.70;99.90;;;;;;5029893;28;20034;-69
2022/03/18 01:11:29;;;;;;;11.63;5.15;;;2.70;99.90;;;;;;5031522;28;20136;-69
2022/03/18 01:13:55;;;;;;;12.07;5.70;;;2.70;99.90;;;;;;5030364;28;20045;-69
2022/03/18 01:16:20;;;;;;;9.52;5.32;;;2.70;99.90;;;;;;5029968;28;20045;-69
2022/03/18 01:18:46;;;;;;;13.20;6.00;;;2.70;99.90;;;;;;5029523;28;20053;-69
2022/03/18 01:21:11;;;;;;;11.02;5.40;;;2.70;99.90;;;;;;5029470;28;20599;-69
2022/03/18 01:23:37;;;;;;;16.08;6.13;;;2.80;99.90;;;;;;5031335;28;20411;-69
2022/03/18 01:26:02;;;;;;;7.55;4.45;;;2.80;99.90;;;;;;5030124;28;20566;-69
2022/03/18 01:28:29;;;;;;;18.00;6.65;;;2.80;99.90;;;;;;5029547;28;20045;-69
2022/03/18 01:30:55;;;;;;;15.82;6.72;;;2.80;99.90;;;;;;5030948;28;20096;-69
2022/03/18 01:33:21;;;;;;;15.52;6.47;;;2.80;99.90;;;;;;5029211;28;20108;-70
2022/03/18 01:35:47;;;;;;;12.35;5.97;;;2.80;99.90;;;;;;5030878;28;20110;-69
2022/03/18 01:38:12;;;;;;;18.17;7.03;;;2.90;99.90;;;;;;5031153;28;20041;-69
2022/03/18 01:40:38;;;;;;;12.38;5.65;;;2.90;99.90;;;;;;5030301;28;20041;-69
2022/03/18 01:43:09;;;;;;;12.75;5.68;;;3.10;99.90;;;;;;5029709;28;20045;-69
2022/03/18 01:45:34;;;;;;;9.48;5.68;;;2.90;99.90;;;;;;5030951;28;20053;-69
2022/03/18 01:48:00;;;;;;;10.93;5.63;;;2.90;99.90;;;;;;5029743;28;20498;-71
2022/03/18 01:50:26;;;;;;;14.35;6.35;;;2.90;99.90;;;;;;5029463;28;20099;-69
2022/03/18 01:52:52;;;;;;;21.67;6.90;;;2.90;99.90;;;;;;5039967;28;20048;-70
2022/03/18 01:55:20;;;;;;;15.15;7.32;;;3.00;99.90;;;;;;5042081;28;20136;-69
2022/03/18 01:57:46;;;;;;;10.93;5.85;;;3.00;99.90;;;;;;5032892;28;20702;-70
2022/03/18 02:00:12;;;;;;;11.13;6.82;;;3.00;99.90;;;;;;5038692;28;20156;-70
2022/03/18 02:02:38;;;;;;;15.15;6.80;;;3.00;99.90;;;;;;5041928;28;20487;-69
2022/03/18 02:05:05;;;;;;;15.77;7.20;;;3.10;99.90;;;;;;5038708;28;20052;-69
2022/03/18 02:07:32;;;;;;;14.38;7.95;;;3.00;99.90;;;;;;5040340;28;20450;-70
2022/03/18 02:09:58;;;;;;;15.77;7.97;;;3.10;99.90;;;;;;5052160;28;20053;-69
2022/03/18 02:12:24;;;;;;;14.73;6.43;;;3.00;99.90;;;;;;5054641;28;20098;-69
2022/03/18 02:14:49;;;;;;;11.98;6.07;;;3.10;99.90;;;;;;5054278;28;20384;-70
2022/03/18 02:17:16;;;;;;;12.18;6.18;;;3.10;99.90;;;;;;5045527;28;20049;-70
2022/03/18 02:19:43;;;;;;;10.93;6.47;;;3.10;99.90;;;;;;5043252;28;20073;-70
2022/03/18 02:22:12;;;;;;;12.75;6.15;;;3.10;99.90;;;;;;5033166;28;20045;-69
2022/03/18 02:24:45;;;;;;;10.25;6.40;;;3.10;99.90;;;;;;5044556;28;20866;-69
2022/03/18 02:27:11;;;;;;;14.68;6.30;;;3.10;99.90;;;;;;5052976;28;20071;-69
2022/03/18 02:29:38;;;;;;;14.00;7.25;;;3.10;99.90;;;;;;5046464;28;20049;-69
2022/03/18 02:32:05;;;;;;;17.45;8.00;;;3.00;99.90;;;;;;5034444;28;20068;-69
2022/03/18 02:34:31;;;;;;;12.75;6.88;;;3.10;99.90;;;;;;5033193;28;20049;-69
2022/03/18 02:36:57;;;;;;;15.05;6.30;;;3.10;99.90;;;;;;5033141;28;20056;-69
2022/03/18 02:39:22;;;;;;;19.00;7.32;;;3.10;99.90;;;;;;5033102;28;20052;-70
2022/03/18 02:41:48;;;;;;;12.52;6.53;;;3.10;99.90;;;;;;5033762;28;20045;-70
2022/03/18 02:44:14;;;;;;;15.90;7.95;;;3.20;99.90;;;;;;5032009;28;20475;-70
2022/03/18 02:46:40;;;;;;;12.73;7.40;;;3.30;99.90;;;;;;5032588;28;20053;-70
2022/03/18 02:49:06;;;;;;;15.98;7.65;;;3.30;99.90;;;;;;5034075;28;20131;-69
2022/03/18 02:51:35;;;;;;;16.17;7.72;;;3.40;99.90;;;;;;5033392;28;20050;-70
2022/03/18 02:54:00;;;;;;;15.23;7.00;;;3.40;99.90;;;;;;5032406;28;20041;-69
2022/03/18 02:56:26;;;;;;;12.48;7.07;;;3.50;99.90;;;;;;5032584;28;20128;-69
2022/03/18 02:58:51;;;;;;;13.10;6.57;;;3.50;99.90;;;;;;5031406;28;20100;-70
2022/03/18 03:01:17;;;;;;;9.07;6.50;;;3.50;99.90;;;;;;5032315;28;20057;-69
2022/03/18 03:03:43;;;;;;;17.90;7.57;;;3.50;99.90;;;;;;5033506;28;20049;-70
2022/03/18 03:08:53;;;;;;;14.65;7.72;;;3.50;99.90;;;;;;5031936;28;20459;-69
2022/03/18 03:11:21;;;;;;;15.32;7.38;;;3.60;99.90;;;;;;5032172;28;20042;-70
2022/03/18 03:13:46;;;;;;;13.30;7.28;;;3.60;99.90;;;;;;5032718;28;20048;-70
2022/03/18 03:16:12;;;;;;;14.00;7.07;;;3.60;99.90;;;;;;5032421;28;20042;-70
2022/03/18 03:18:38;;;;;;;13.45;7.88;;;3.60;99.90;;;;;;5032669;28;20090;-69
2022/03/18 03:21:03;;;;;;;16.33;6.57;;;3.60;99.90;;;;;;5032361;28;20136;-70
2022/03/18 03:23:29;;;;;;;10.82;6.38;;;3.60;99.90;;;;;;5032234;28;20045;-70
2022/03/18 03:25:56;;;;;;;10.77;6.05;;;3.70;99.90;;;;;;5030771;28;20239;-70
2022/03/18 03:28:22;;;;;;;14.88;7.00;;;3.70;99.90;;;;;;5032000;28;20476;-70
2022/03/18 03:30:48;;;;;;;15.65;7.07;;;3.80;99.90;;;;;;5032940;28;20065;-70
2022/03/18 03:33:15;;;;;;;13.35;7.10;;;3.80;99.90;;;;;;5032744;28;20141;-69
2022/03/18 03:35:41;;;;;;;13.85;7.47;;;3.80;99.90;;;;;;5031667;28;20079;-69
2022/03/18 03:38:09;;;;;;;7.93;6.43;;;3.90;99.90;;;;;;5031746;28;20041;-69
2022/03/18 03:40:36;;;;;;;11.50;6.47;;;3.90;99.90;;;;;;5032275;28;20116;-70
2022/03/18 03:43:02;;;;;;;11.40;6.45;;;3.90;99.90;;;;;;5031394;28;20045;-69
2022/03/18 03:45:27;;;;;;;12.15;6.40;;;4.00;99.90;;;;;;5031686;28;20515;-69
2022/03/18 03:47:53;;;;;;;24.52;8.27;;;4.00;99.90;;;;;;5030574;28;20132;-69
2022/03/18 03:50:19;;;;;;;14.73;7.75;;;4.00;99.90;;;;;;5032735;28;20395;-69
2022/03/18 03:52:44;;;;;;;13.57;6.85;;;4.10;99.90;;;;;;5031287;28;20049;-69
2022/03/18 03:55:12;;;;;;;11.55;6.55;;;4.10;99.90;;;;;;5030805;28;20049;-69
2022/03/18 03:57:38;;;;;;;13.60;7.45;;;4.10;99.90;;;;;;5032863;28;20067;-69
2022/03/18 04:00:09;;;;;;;17.45;7.30;;;4.10;99.90;;;;;;5032788;28;20052;-69
2022/03/18 04:02:37;;;;;;;14.88;6.93;;;4.20;99.90;;;;;;5030924;28;20049;-69
2022/03/18 04:05:07;;;;;;;10.13;6.15;;;4.20;99.90;;;;;;5032364;28;20045;-70
2022/03/18 04:07:33;;;;;;;14.52;5.97;;;4.30;99.90;;;;;;5031072;28;20045;-70
2022/03/18 04:09:59;;;;;;;12.60;6.90;;;4.20;99.90;;;;;;5031582;28;20083;-70
2022/03/18 04:12:24;;;;;;;15.23;6.82;;;4.30;99.90;;;;;;5032604;28;20073;-70
2022/03/18 04:14:51;;;;;;;12.90;6.95;;;4.30;99.90;;;;;;5031644;28;20053;-70
2022/03/18 04:17:17;;;;;;;12.63;6.47;;;4.30;99.90;;;;;;5030988;28;20049;-70
2022/03/18 04:19:43;;;;;;;14.10;7.25;;;4.30;99.90;;;;;;5030656;28;20056;-70
2022/03/18 04:22:08;;;;;;;12.85;6.60;;;4.40;99.90;;;;;;5031624;28;20045;-70
2022/03/18 04:24:34;;;;;;;11.70;6.38;;;4.40;99.90;;;;;;5032256;28;20488;-69
2022/03/18 04:27:00;;;;;;;10.88;7.43;;;4.40;99.90;;;;;;5031633;28;20045;-70
2022/03/18 04:29:25;;;;;;;13.75;7.80;;;4.40;99.90;;;;;;5030102;28;20137;-70
2022/03/18 04:31:52;;;;;;;9.63;6.47;;;4.40;99.90;;;;;;5030647;28;20041;-70
2022/03/18 04:34:18;;;;;;;10.90;6.88;;;4.40;99.90;;;;;;5032058;28;20059;-70
2022/03/18 04:36:44;;;;;;;10.23;6.68;;;4.40;99.90;;;;;;5029739;28;20053;-70
2022/03/18 04:39:10;;;;;;;14.02;7.75;;;4.40;99.90;;;;;;5031955;28;20049;-70
2022/03/18 04:41:35;;;;;;;11.93;7.47;;;4.40;99.90;;;;;;5031894;28;20052;-70
2022/03/18 04:44:02;;;;;;;12.85;7.32;;;4.50;99.90;;;;;;5030797;28;20045;-70
2022/03/18 04:46:31;;;;;;;10.25;6.68;;;4.50;99.90;;;;;;5031741;28;20446;-70
2022/03/18 04:48:57;;;;;;;14.63;7.82;;;4.50;99.90;;;;;;5031385;28;20040;-70
2022/03/18 04:51:23;;;;;;;15.10;6.97;;;4.40;99.90;;;;;;5030947;28;20462;-69
2022/03/18 04:53:49;;;;;;;11.18;7.35;;;4.40;99.90;;;;;;5030338;28;20132;-68
2022/03/18 04:58:58;;;;;;;14.73;6.82;;;4.30;99.90;;;;;;5030559;28;20546;-68
2022/03/18 05:01:25;;;;;;;20.15;7.13;;;4.20;99.90;;;;;;5030250;28;20095;-69
2022/03/18 05:03:51;;;;;;;11.98;6.95;;;4.20;99.90;;;;;;5030038;28;20546;-68
2022/03/18 05:06:17;;;;;;;11.23;6.75;;;4.10;99.90;;;;;;5030976;28;20084;-69
2022/03/18 05:08:42;;;;;;;11.30;6.50;;;4.00;99.90;;;;;;5031219;28;20049;-68
2022/03/18 05:11:08;;;;;;;18.98;7.97;;;4.00;99.90;;;;;;5030290;28;20041;-69
2022/03/18 05:13:34;;;;;;;10.50;6.32;;;3.90;99.90;;;;;;5045486;28;20746;-68
2022/03/18 05:16:00;;;;;;;11.25;6.68;;;3.90;99.90;;;;;;5032741;28;20095;-68
2022/03/18 05:18:25;;;;;;;12.80;7.47;;;3.80;99.90;;;;;;5044883;28;20049;-68
2022/03/18 05:20:51;;;;;;;10.73;6.55;;;3.70;99.90;;;;;;5041075;28;20084;-68
2022/03/18 05:23:17;;;;;;;10.65;6.75;;;3.60;99.90;;;;;;5040782;28;20116;-68
2022/03/18 05:25:43;;;;;;;12.43;7.10;;;3.50;99.90;;;;;;5044843;28;20081;-68
2022/03/18 05:28:09;;;;;;;9.40;6.90;;;3.50;99.90;;;;;;5031168;28;20356;-68
2022/03/18 05:30:35;;;;;;;9.55;6.90;;;3.40;99.90;;;;;;5031059;28;20511;-68
2022/03/18 05:33:01;;;;;;;14.75;7.22;;;3.30;99.90;;;;;;5029673;28;20113;-68
2022/03/18 05:35:26;;;;;;;12.77;6.90;;;3.30;99.90;;;;;;5039474;28;20048;-68
2022/03/18 05:37:52;;;;;;;11.70;7.28;;;3.20;99.90;;;;;;5030119;28;20433;-69
2022/03/18 05:40:18;;;;;;;10.45;7.25;;;3.10;99.90;;;;;;5028980;28;20056;-67
2022/03/18 05:42:47;;;;;;;11.02;6.60;;;3.10;99.90;;;;;;5029319;28;20172;-68
2022/03/18 05:45:12;;;;;;;13.85;7.30;;;3.00;99.90;;;;;;5030897;28;20049;-68
2022/03/18 05:47:38;;;;;;;9.52;6.95;;;3.00;99.90;;;;;;5029030;28;20385;-68
2022/03/18 05:50:06;;;;;;;15.23;8.05;;;3.00;99.90;;;;;;5029617;28;20045;-68
2022/03/18 05:52:32;;;;;;;11.95;6.72;;;2.90;99.90;;;;;;5029759;28;20148;-68
2022/03/18 05:54:58;;;;;;;10.07;6.97;;;2.90;99.90;;;;;;5028330;28;20136;-68
2022/03/18 05:57:28;;;;;;;8.63;7.07;;;2.90;99.90;;;;;;5030878;28;20042;-68
2022/03/18 05:59:55;;;;;;;10.48;7.13;;;2.80;99.90;;;;;;5029226;28;20077;-68
2022/03/18 06:02:21;;;;;;;10.23;7.68;;;2.80;99.90;;;;;;5028511;28;20056;-69
2022/03/18 06:04:47;;;;;;;10.82;7.65;;;2.80;99.90;;;;;;5029069;28;20041;-68
2022/03/18 06:07:14;;;;;;;13.02;7.15;;;2.80;99.90;;;;;;5029421;28;20460;-68
2022/03/18 06:12:24;;;;;;;16.63;8.40;;;2.70;99.90;;;;;;5033243;28;20045;-68
2022/03/18 06:14:49;;;;;;;8.93;7.60;;;2.70;99.90;;;;;;5044911;28;20051;-68
2022/03/18 06:17:15;;;;;;;19.65;9.93;;;2.70;99.90;;;;;;5050566;28;20056;-68
2022/03/18 06:19:41;;;;;;;11.20;7.78;;;2.70;99.90;;;;;;5048895;28;20040;-68
2022/03/18 06:22:08;;;;;;;12.00;7.72;;;2.70;99.90;;;;;;5049910;28;20029;-68
2022/03/18 06:24:34;;;;;;;10.18;7.22;;;2.70;99.90;;;;;;5050883;28;20048;-68
2022/03/18 06:27:01;;;;;;;10.65;7.22;;;2.70;99.90;;;;;;5038276;28;20505;-68
2022/03/18 06:29:28;;;;;;;14.50;8.07;;;2.80;99.90;;;;;;5044294;28;20075;-70
2022/03/18 06:31:54;;;;;;;15.10;8.32;;;2.80;99.90;;;;;;5037320;28;20051;-70
2022/03/18 06:34:23;;;;;;;12.60;7.63;;;2.80;99.90;;;;;;5035065;28;20045;-68
2022/03/18 06:36:53;;;;;;;13.88;8.65;;;2.80;99.90;;;;;;5049391;28;20056;-69
2022/03/18 06:39:19;;;;;;;14.00;7.50;;;2.90;99.90;;;;;;5050838;28;20041;-70
2022/03/18 06:41:46;;;;;;;11.68;8.20;;;2.90;99.90;;;;;;5036834;28;20057;-68
2022/03/18 06:44:11;;;;;;;15.07;8.55;;;3.00;99.90;;;;;;5032915;28;20057;-68
2022/03/18 06:46:38;;;;;;;22.70;8.73;;;3.00;99.90;;;;;;5036406;28;20045;-68
2022/03/18 06:49:05;;;;;;;13.45;8.50;;;3.10;99.90;;;;;;5031584;28;20057;-68
2022/03/18 06:51:30;;;;;;;13.57;9.02;;;3.20;99.90;;;;;;5033147;28;20427;-68
2022/03/18 06:53:56;;;;;;;14.90;9.80;;;3.30;99.90;;;;;;5032263;28;20041;-69
2022/03/18 06:56:22;;;;;;;386.08;50.85;;;3.30;99.90;;;;;;5032643;28;20045;-68
2022/03/18 06:58:48;;;;;;;21.08;10.15;;;3.40;99.90;;;;;;5031887;28;20055;-69
2022/03/18 07:01:13;;;;;;;11.82;9.75;;;3.50;99.90;;;;;;5035230;28;20054;-70
2022/03/18 07:03:39;;;;;;;13.57;9.60;;;3.60;99.90;;;;;;5040781;28;20152;-69
2022/03/18 07:06:06;;;;;;;17.38;9.95;;;3.80;99.90;;;;;;5033766;28;20051;-69
2022/03/18 07:08:32;;;;;;;13.93;10.43;;;3.90;99.90;;;;;;5032396;28;20053;-69
2022/03/18 07:10:58;;;;;;;16.85;12.40;;;4.00;99.90;;;;;;5032386;28;20075;-69
2022/03/18 07:13:24;;;;;;;21.25;11.90;;;4.10;99.90;;;;;;5032327;28;20136;-69
2022/03/18 07:15:49;;;;;;;22.75;12.48;;;4.20;99.90;;;;;;5034070;28;20049;-69
2022/03/18 07:18:15;;;;;;;17.65;11.63;;;4.40;99.90;;;;;;5039422;28;20056;-69
2022/03/18 07:20:40;;;;;;;17.17;12.50;;;4.50;99.90;;;;;;5053063;28;20036;-70
2022/03/18 07:23:14;;;;;;;17.30;11.63;;;4.70;99.90;;;;;;5033723;28;20114;-70
2022/03/18 07:25:42;;;;;;;16.48;11.60;;;4.90;99.90;;;;;;5034861;28;20048;-70
2022/03/18 07:28:10;;;;;;;18.30;11.25;;;5.00;99.90;;;;;;5037271;28;20107;-69
2022/03/18 07:30:37;;;;;;;18.30;12.30;;;5.10;99.90;;;;;;5050330;28;20044;-70
2022/03/18 07:33:03;;;;;;;22.45;10.88;;;5.30;99.90;;;;;;5033661;28;20538;-70
2022/03/18 07:35:30;;;;;;;18.38;11.02;;;5.40;99.90;;;;;;5051316;28;20073;-70
2022/03/18 07:37:56;;;;;;;13.65;11.30;;;5.50;99.90;;;;;;5040368;28;20480;-70
2022/03/18 07:40:22;;;;;;;20.60;11.13;;;5.60;99.90;;;;;;5031922;28;20041;-70
2022/03/18 07:42:49;;;;;;;22.23;11.45;;;5.70;99.90;;;;;;5039512;28;20052;-70
2022/03/18 07:45:28;;;;;;;19.63;11.15;;;5.80;99.90;;;;;;5039354;28;20057;-70
2022/03/18 07:48:00;;;;;;;22.10;11.48;;;6.00;99.90;;;;;;5032981;28;20041;-69
2022/03/18 07:50:27;;;;;;;;;;;6.10;99.90;;;;;;5048295;28;20041;-69
2022/03/18 07:52:55;;;;;;;24.77;11.98;;;6.20;99.90;;;;;;5050537;28;19931;-70
2022/03/18 07:55:26;;;;;;;18.50;10.13;;;6.30;99.90;;;;;;5052664;28;20484;-69
2022/03/18 07:57:53;;;;;;;20.53;11.43;;;6.40;99.90;;;;;;5036894;28;20087;-70
2022/03/18 08:00:19;;;;;;;17.83;11.48;;;6.50;99.90;;;;;;5030650;28;20063;-70
2022/03/18 08:02:46;;;;;;;22.30;12.38;;;6.70;99.90;;;;;;5034506;28;20393;-70
2022/03/18 08:05:13;;;;;;;17.23;10.45;;;6.80;99.90;;;;;;5033324;28;20056;-72
2022/03/18 08:07:39;;;;;;;19.45;10.70;;;6.90;99.90;;;;;;5030695;28;20442;-72
2022/03/18 08:10:07;;;;;;;20.33;11.60;;;7.00;99.90;;;;;;5032418;28;20548;-75
2022/03/18 08:12:33;;;;;;;18.58;9.90;;;7.20;99.90;;;;;;5039383;28;20052;-77
2022/03/18 08:15:04;;;;;;;25.77;11.00;;;7.40;99.90;;;;;;5036357;28;20053;-72
2022/03/18 08:17:30;;;;;;;19.40;10.27;;;7.50;99.90;;;;;;5033421;28;20488;-71
2022/03/18 08:19:56;;;;;;;20.73;9.93;;;7.60;99.90;;;;;;5045667;28;20052;-71
2022/03/18 08:22:22;;;;;;;31.08;10.57;;;7.80;99.90;;;;;;5044472;28;20045;-71
2022/03/18 08:24:49;;;;;;;18.98;9.88;;;7.90;99.90;;;;;;5031968;28;20056;-70
2022/03/18 08:27:15;;;;;;;29.60;10.63;;;8.00;99.90;;;;;;5030792;28;20087;-72
2022/03/18 08:29:41;;;;;;;16.40;9.13;;;8.20;99.90;;;;;;5029683;28;20049;-70
2022/03/18 08:32:08;;;;;;;20.23;9.35;;;8.20;99.90;;;;;;5030419;28;20076;-69
2022/03/18 08:34:34;;;;;;;23.02;10.20;;;8.30;99.90;;;;;;5047981;28;20128;-70
2022/03/18 08:37:00;;;;;;;19.23;9.50;;;8.40;99.90;;;;;;5035891;28;20124;-70
2022/03/18 08:39:26;;;;;;;23.98;9.25;;;8.50;99.90;;;;;;5032581;28;20068;-69
2022/03/18 08:41:52;;;;;;;16.17;8.32;;;8.60;99.90;;;;;;5029451;28;20476;-69
2022/03/18 08:44:19;;;;;;;18.08;9.80;;;8.70;99.90;;;;;;5029913;28;20049;-70
2022/03/18 08:46:48;;;;;;;24.17;10.07;;;8.80;99.90;;;;;;5031440;28;20116;-70
2022/03/18 08:49:14;;;;;;;22.42;9.18;;;8.90;99.90;;;;;;5029913;28;20675;-70
2022/03/18 08:51:39;;;;;;;22.67;8.93;;;9.00;99.90;;;;;;5029421;28;20159;-70
2022/03/18 08:54:05;;;;;;;14.65;7.75;;;9.10;99.90;;;;;;5031573;28;20041;-70
2022/03/18 08:56:31;;;;;;;23.33;8.85;;;9.20;99.90;;;;;;5029887;28;20041;-70
2022/03/18 08:58:57;;;;;;;22.45;9.43;;;9.30;99.90;;;;;;5031322;28;20037;-70
2022/03/18 09:01:24;;;;;;;20.58;8.43;;;9.50;99.90;;;;;;5030396;28;20049;-70
2022/03/18 09:03:51;;;;;;;19.90;9.40;;;9.60;99.90;;;;;;5031713;28;20404;-70
2022/03/18 09:06:16;;;;;;;22.75;9.10;;;9.70;99.90;;;;;;5030089;28;20061;-69
2022/03/18 09:08:42;;;;;;;16.60;7.63;;;9.80;99.90;;;;;;5029551;28;20042;-70
2022/03/18 09:11:08;;;;;;;23.95;8.32;;;9.80;99.90;;;;;;5032112;28;20056;-69
2022/03/18 09:13:35;;;;;;;17.83;7.68;;;9.90;99.90;;;;;;5039187;28;20037;-69
2022/03/18 09:16:04;;;;;;;21.25;7.40;;;10.00;99.90;;;;;;5041413;28;20073;-70
2022/03/18 09:18:31;;;;;;;21.58;7.38;;;10.10;99.90;;;;;;5031124;28;20630;-70
2022/03/18 09:20:57;;;;;;;15.35;6.97;;;10.20;99.90;;;;;;5047420;28;20040;-70
2022/03/18 09:23:23;;;;;;;22.50;6.63;;;10.30;99.90;;;;;;5042668;28;20384;-70
2022/03/18 09:25:49;;;;;;;24.95;8.02;;;10.40;99.90;;;;;;5046106;28;20048;-70
2022/03/18 09:28:15;;;;;;;23.20;6.90;;;10.40;99.90;;;;;;5034301;28;20099;-70
2022/03/18 09:30:41;;;;;;;28.52;7.28;;;10.40;99.90;;;;;;5035135;28;20124;-70
2022/03/18 09:33:07;;;;;;;24.33;7.20;;;10.60;99.90;;;;;;5036511;28;20037;-70
2022/03/18 09:35:34;;;;;;;16.00;7.43;;;10.60;99.90;;;;;;5039890;28;20045;-71
2022/03/18 09:37:59;;;;;;;18.67;6.55;;;10.70;99.90;;;;;;5032787;28;20047;-71
2022/03/18 09:40:25;;;;;;;17.92;6.55;;;10.70;99.90;;;;;;5039313;28;20128;-71
2022/03/18 09:43:02;;;;;;;18.98;6.85;;;10.80;99.90;;;;;;5035381;28;20045;-71
2022/03/18 09:45:31;;;;;;;24.42;7.25;;;10.90;99.90;;;;;;5038940;28;20044;-71
2022/03/18 09:48:11;;;;;;;23.73;7.45;;;10.90;99.90;;;;;;5043596;28;20124;-70
2022/03/18 09:50:38;;;;;;;15.15;5.95;;;11.00;99.90;;;;;;5039589;28;20549;-71
2022/03/18 09:53:05;;;;;;;17.83;6.32;;;11.00;99.90;;;;;;5033941;28;20036;-71
2022/03/18 09:55:34;;;;;;;17.60;6.35;;;11.10;99.90;;;;;;5034794;28;20084;-71
2022/03/18 09:58:00;;;;;;;16.63;6.78;;;11.10;99.90;;;;;;5033114;28;20389;-71
2022/03/18 10:00:26;;;;;;;17.50;5.85;;;11.10;99.90;;;;;;5029832;28;20643;-71
2022/03/18 10:03:12;;;;;;;18.17;6.68;;;11.20;99.90;;;;;;5030607;28;20037;-71
2022/03/18 10:05:49;;;;;;;19.20;7.00;;;11.30;99.90;;;;;;5037004;28;20041;-71
2022/03/18 10:08:20;;;;;;;14.40;6.30;;;11.30;99.90;;;;;;5029535;28;20503;-71
2022/03/18 10:10:47;;;;;;;21.73;6.97;;;11.30;99.90;;;;;;5037831;28;20076;-71
2022/03/18 10:13:15;;;;;;;21.08;7.03;;;11.40;99.90;;;;;;5049151;28;20539;-71
2022/03/18 10:15:41;;;;;;;18.05;6.50;;;11.50;99.90;;;;;;5042989;28;20120;-68
2022/03/18 10:18:14;;;;;;;15.82;6.97;;;11.50;99.90;;;;;;5030191;28;20060;-70
2022/03/18 10:20:42;;;;;;;15.40;6.20;;;11.50;99.90;;;;;;5036581;28;20056;-70
2022/03/18 10:23:16;;;;;;;18.13;6.07;;;11.60;99.90;;;;;;5037342;28;20053;-71
2022/03/18 10:25:50;;;;;;;17.23;6.68;;;11.60;99.90;;;;;;5032498;28;20140;-71
2022/03/18 10:28:36;;;;;;;15.40;6.70;;;11.70;99.90;;;;;;5033676;28;20077;-71
2022/03/18 10:31:32;;;;;;;16.25;6.80;;;11.70;99.90;;;;;;5032629;28;20049;-71
2022/03/18 10:37:05;;;;;;;20.80;7.13;;;11.90;99.90;;;;;;5051394;28;20100;-72
2022/03/18 10:39:42;;;;;;;16.00;5.97;;;12.00;99.90;;;;;;5036606;28;20095;-71
2022/03/18 10:42:13;;;;;;;28.92;6.05;;;12.00;99.90;;;;;;5035279;28;20053;-71
2022/03/18 10:44:45;;;;;;;27.45;7.03;;;12.00;99.90;;;;;;5036688;28;20061;-72
2022/03/18 10:47:33;;;;;;;16.27;6.33;;;12.10;99.90;;;;;;5038804;28;20103;-72
2022/03/18 10:50:11;;;;;;;19.20;6.20;;;12.30;99.90;;;;;;5041966;28;20324;-72
2022/03/18 10:52:58;;;;;;;19.75;6.35;;;12.10;99.90;;;;;;5034796;28;20557;-72
2022/03/18 10:55:48;;;;;;;16.85;6.35;;;12.20;99.90;;;;;;5029773;28;20385;-72
2022/03/18 10:58:17;;;;;;;19.92;5.82;;;12.20;99.90;;;;;;5034380;28;20053;-72
2022/03/18 11:00:45;;;;;;;17.45;5.78;;;12.20;99.90;;;;;;5037203;28;20457;-72
2022/03/18 11:03:11;;;;;;;15.85;5.32;;;12.30;99.90;;;;;;5032865;28;20053;-72
2022/03/18 11:05:42;;;;;;;17.67;4.60;;;12.30;99.90;;;;;;5039463;28;20049;-72
2022/03/18 11:08:22;;;;;;;15.15;5.15;;;12.30;99.90;;;;;;5049024;28;20523;-72
2022/03/18 11:13:56;;;;;;;17.33;5.63;;;12.50;99.90;;;;;;5034794;28;20049;-72
2022/03/18 11:16:28;;;;;;;15.40;5.57;;;12.60;99.90;;;;;;5036697;28;20376;-72
2022/03/18 11:18:54;;;;;;;;;;;12.70;99.90;;;;;;5030045;28;20033;-71
2022/03/18 11:21:21;;;;;;;12.27;5.22;;;12.70;99.90;;;;;;5033270;28;19932;-72
2022/03/18 11:23:49;;;;;;;18.60;5.05;;;12.70;99.90;;;;;;5034074;28;20045;-72
2022/03/18 11:26:17;;;;;;;10.20;4.90;;;12.90;99.90;;;;;;5037902;28;20441;-72
2022/03/18 11:28:43;;;;;;;18.42;6.05;;;13.00;99.90;;;;;;5036593;28;20140;-72
2022/03/18 11:31:11;;;;;;;19.75;5.65;;;13.10;99.90;;;;;;5034666;28;20084;-72
2022/03/18 11:33:38;;;;;;;11.95;4.57;;;13.10;99.90;;;;;;5036891;28;20033;-72
2022/03/18 11:36:14;;;;;;;17.85;5.50;;;13.20;99.90;;;;;;5031868;28;20045;-72
2022/03/18 11:38:56;;;;;;;18.10;5.15;;;13.20;99.90;;;;;;5031222;28;20567;-72
2022/03/18 11:41:45;;;;;;;16.58;5.32;;;13.20;99.90;;;;;;5036406;28;20099;-72
2022/03/18 11:44:31;;;;;;;17.17;5.28;;;13.30;99.90;;;;;;5031980;28;20045;-72
2022/03/18 11:47:20;;;;;;;22.17;6.38;;;13.40;99.90;;;;;;5035226;28;20048;-72
2022/03/18 11:49:47;;;;;;;18.25;4.95;;;13.40;99.90;;;;;;5049942;28;20136;-73
2022/03/18 11:52:13;;;;;;;15.23;4.90;;;13.40;99.90;;;;;;5030727;28;20077;-72
2022/03/18 11:54:56;;;;;;;11.80;5.05;;;13.40;99.90;;;;;;5030873;28;20045;-72
2022/03/18 11:57:33;;;;;;;18.48;4.93;;;13.50;99.90;;;;;;5032552;28;20042;-72
2022/03/18 12:00:05;;;;;;;17.90;5.03;;;13.50;99.90;;;;;;5035808;28;20068;-71
2022/03/18 12:02:38;;;;;;;20.50;5.43;;;13.60;99.90;;;;;;5046274;28;20061;-72
2022/03/18 12:05:05;;;;;;;17.65;5.25;;;13.60;99.90;;;;;;5049930;28;20040;-73
2022/03/18 12:07:48;;;;;;;16.00;5.40;;;13.60;99.90;;;;;;5040067;28;20119;-72
2022/03/18 12:10:15;;;;;;;21.75;5.88;;;13.70;99.90;;;;;;5041222;28;20054;-73
2022/03/18 12:12:42;;;;;;;17.33;4.95;;;13.60;99.90;;;;;;5032090;28;20438;-73
2022/03/18 12:15:09;;;;;;;17.23;5.18;;;13.40;99.90;;;;;;5031559;28;20095;-74
2022/03/18 12:17:43;;;;;;;11.93;4.18;;;13.30;99.90;;;;;;5031272;28;20491;-72
2022/03/18 12:20:11;;;;;;;18.83;5.70;;;13.40;99.90;;;;;;5030145;28;20058;-71
2022/03/18 12:22:38;;;;;;;20.05;5.15;;;13.40;99.90;;;;;;5039630;28;20080;-71
2022/03/18 12:25:05;;;;;;;20.35;5.45;;;13.40;99.90;;;;;;5050759;28;20040;-71
2022/03/18 12:27:36;;;;;;;12.45;5.10;;;12.20;99.90;;;;;;5050752;28;20161;-71
2022/03/18 12:30:05;;;;;;;20.33;6.17;;;13.60;99.90;;;;;;5038765;28;20408;-71
2022/03/18 12:32:30;;;;;;;19.65;5.55;;;13.60;99.90;;;;;;5030437;28;20292;-71
2022/03/18 12:34:57;;;;;;;14.48;4.93;;;13.70;99.90;;;;;;5031036;28;20060;-70
2022/03/18 12:37:32;;;;;;;16.75;5.28;;;13.70;99.90;;;;;;5031839;28;20033;-70
2022/03/18 12:40:13;;;;;;;20.27;4.80;;;13.70;99.90;;;;;;5030400;28;20049;-73
2022/03/18 12:43:01;;;;;;;19.30;5.57;;;13.80;99.90;;;;;;5030114;28;20395;-71
2022/03/18 12:45:29;;;;;;;17.10;5.50;;;13.70;99.90;;;;;;5031707;28;20080;-72
2022/03/18 12:48:02;;;;;;;17.42;4.97;;;13.70;99.90;;;;;;5031202;28;20117;-70
2022/03/18 12:50:33;;;;;;;14.95;4.32;;;13.70;99.90;;;;;;5029301;28;20050;-71
2022/03/18 12:53:00;;;;;;;15.45;4.60;;;13.60;99.90;;;;;;5030110;28;20091;-71
2022/03/18 12:55:27;;;;;;;17.73;4.97;;;13.60;99.90;;;;;;5030764;28;20553;-71
2022/03/18 12:57:53;;;;;;;23.30;4.93;;;13.60;99.90;;;;;;5035162;28;20048;-71
2022/03/18 13:00:21;;;;;;;22.20;5.28;;;13.50;99.90;;;;;;5031301;28;20065;-71
2022/03/18 13:02:51;;;;;;;20.75;5.03;;;13.50;99.90;;;;;;5034781;28;20053;-71
2022/03/18 13:05:19;;;;;;;21.27;5.25;;;13.60;99.90;;;;;;5031112;28;20120;-71